sensor_id;sensor_type;location;lat;lon;timestamp;P1;durP1;ratioP1;P2;durP2;ratioP2
9445;SDS011;4761;49.490;10.908;2022-12-18T00:01:48;15.30;;;13.60;;
9445;SDS011;4761;49.490;10.908;2022-12-18T00:04:16;15.77;;;13.83;;
9445;SDS011;4761;49.490;10.908;2022-12-18T00:06:45;15.00;;;13.40;;
9445;SDS011;4761;49.490;10.908;2022-12-18T00:09:11;15.63;;;13.83;;
9445;SDS011;4761;49.490;10.908;2022-12-18T00:11:36;17.83;;;14.80;;
9445;SDS011;4761;49.490;10.908;2022-12-18T00:14:02;15.53;;;13.67;;
9445;SDS011;4761;49.490;10.908;2022-12-18T00:16:28;16.40;;;13.33;;
9445;SDS011;4761;49.490;10.908;2022-12-18T00:18:56;14.43;;;12.93;;
9445;SDS011;4761;49.490;10.908;2022-12-18T00:21:25;15.63;;;13.93;;
9445;SDS011;4761;49.490;10.908;2022-12-18T00:23:52;16.97;;;14.20;;
9445;SDS011;4761;49.490;10.908;2022-12-18T00:26:20;14.33;;;12.83;;
9445;SDS011;4761;49.490;10.908;2022-12-18T00:28:50;15.07;;;12.97;;
9445;SDS011;4761;49.490;10.908;2022-12-18T00:31:17;14.80;;;13.30;;
9445;SDS011;4761;49.490;10.908;2022-12-18T00:33:47;15.23;;;13.53;;
9445;SDS011;4761;49.490;10.908;2022-12-18T00:38:40;14.70;;;13.20;;
9445;SDS011;4761;49.490;10.908;2022-12-18T00:41:06;14.67;;;13.07;;
9445;SDS011;4761;49.490;10.908;2022-12-18T00:43:33;16.50;;;14.57;;
9445;SDS011;4761;49.490;10.908;2022-12-18T00:45:59;15.20;;;13.47;;
9445;SDS011;4761;49.490;10.908;2022-12-18T00:48:25;17.70;;;15.20;;
9445;SDS011;4761;49.490;10.908;2022-12-18T00:50:50;15.67;;;13.97;;
9445;SDS011;4761;49.490;10.908;2022-12-18T00:53:16;15.90;;;13.77;;
9445;SDS011;4761;49.490;10.908;2022-12-18T00:55:42;15.77;;;13.90;;
9445;SDS011;4761;49.490;10.908;2022-12-18T00:58:08;16.63;;;14.77;;
9445;SDS011;4761;49.490;10.908;2022-12-18T01:00:35;15.20;;;13.60;;
9445;SDS011;4761;49.490;10.908;2022-12-18T01:03:00;17.17;;;14.17;;
9445;SDS011;4761;49.490;10.908;2022-12-18T01:05:26;15.97;;;13.70;;
9445;SDS011;4761;49.490;10.908;2022-12-18T01:07:52;14.77;;;13.27;;
9445;SDS011;4761;49.490;10.908;2022-12-18T01:10:17;16.23;;;14.53;;
9445;SDS011;4761;49.490;10.908;2022-12-18T01:12:43;14.93;;;13.33;;
9445;SDS011;4761;49.490;10.908;2022-12-18T01:15:09;16.37;;;14.67;;
9445;SDS011;4761;49.490;10.908;2022-12-18T01:17:36;15.80;;;14.10;;
9445;SDS011;4761;49.490;10.908;2022-12-18T01:20:02;16.77;;;14.07;;
9445;SDS011;4761;49.490;10.908;2022-12-18T01:22:28;17.40;;;15.17;;
9445;SDS011;4761;49.490;10.908;2022-12-18T01:24:53;16.57;;;14.77;;
9445;SDS011;4761;49.490;10.908;2022-12-18T01:27:19;15.83;;;14.07;;
9445;SDS011;4761;49.490;10.908;2022-12-18T01:29:45;16.00;;;14.23;;
9445;SDS011;4761;49.490;10.908;2022-12-18T01:32:10;16.33;;;14.37;;
9445;SDS011;4761;49.490;10.908;2022-12-18T01:34:36;15.47;;;13.73;;
9445;SDS011;4761;49.490;10.908;2022-12-18T01:37:03;15.67;;;13.93;;
9445;SDS011;4761;49.490;10.908;2022-12-18T01:39:29;15.00;;;13.40;;
9445;SDS011;4761;49.490;10.908;2022-12-18T01:41:56;16.47;;;14.13;;
9445;SDS011;4761;49.490;10.908;2022-12-18T01:47:25;15.53;;;13.83;;
9445;SDS011;4761;49.490;10.908;2022-12-18T01:50:02;15.10;;;13.50;;
9445;SDS011;4761;49.490;10.908;2022-12-18T01:52:43;15.60;;;13.93;;
9445;SDS011;4761;49.490;10.908;2022-12-18T01:55:15;15.83;;;14.13;;
9445;SDS011;4761;49.490;10.908;2022-12-18T01:57:43;15.77;;;14.07;;
9445;SDS011;4761;49.490;10.908;2022-12-18T02:00:11;15.60;;;14.00;;
9445;SDS011;4761;49.490;10.908;2022-12-18T02:02:42;16.40;;;14.03;;
9445;SDS011;4761;49.490;10.908;2022-12-18T02:05:09;14.97;;;13.37;;
9445;SDS011;4761;49.490;10.908;2022-12-18T02:07:38;16.73;;;14.27;;
9445;SDS011;4761;49.490;10.908;2022-12-18T02:10:22;16.80;;;14.77;;
9445;SDS011;4761;49.490;10.908;2022-12-18T02:13:20;12.53;;;11.23;;
9445;SDS011;4761;49.490;10.908;2022-12-18T02:15:47;16.53;;;14.73;;
9445;SDS011;4761;49.490;10.908;2022-12-18T02:18:33;16.10;;;14.43;;
9445;SDS011;4761;49.490;10.908;2022-12-18T02:23:52;17.37;;;15.13;;
9445;SDS011;4761;49.490;10.908;2022-12-18T02:26:36;17.33;;;15.30;;
9445;SDS011;4761;49.490;10.908;2022-12-18T02:29:13;17.20;;;15.23;;
9445;SDS011;4761;49.490;10.908;2022-12-18T02:31:59;16.90;;;15.20;;
9445;SDS011;4761;49.490;10.908;2022-12-18T02:34:28;17.93;;;15.47;;
9445;SDS011;4761;49.490;10.908;2022-12-18T02:36:56;17.53;;;15.07;;
9445;SDS011;4761;49.490;10.908;2022-12-18T02:39:25;16.77;;;14.97;;
9445;SDS011;4761;49.490;10.908;2022-12-18T02:41:51;16.50;;;14.80;;
9445;SDS011;4761;49.490;10.908;2022-12-18T02:44:17;17.50;;;15.00;;
9445;SDS011;4761;49.490;10.908;2022-12-18T02:46:44;17.03;;;15.10;;
9445;SDS011;4761;49.490;10.908;2022-12-18T02:52:01;18.20;;;16.07;;
9445;SDS011;4761;49.490;10.908;2022-12-18T02:57:24;18.00;;;15.80;;
9445;SDS011;4761;49.490;10.908;2022-12-18T03:00:21;19.47;;;16.03;;
9445;SDS011;4761;49.490;10.908;2022-12-18T03:02:49;17.80;;;15.47;;
9445;SDS011;4761;49.490;10.908;2022-12-18T03:05:33;17.97;;;15.83;;
9445;SDS011;4761;49.490;10.908;2022-12-18T03:08:17;19.20;;;15.57;;
9445;SDS011;4761;49.490;10.908;2022-12-18T03:10:51;19.10;;;15.77;;
9445;SDS011;4761;49.490;10.908;2022-12-18T03:13:26;19.47;;;16.30;;
9445;SDS011;4761;49.490;10.908;2022-12-18T03:15:57;19.50;;;15.73;;
9445;SDS011;4761;49.490;10.908;2022-12-18T03:18:25;19.37;;;16.53;;
9445;SDS011;4761;49.490;10.908;2022-12-18T03:21:02;20.13;;;16.23;;
9445;SDS011;4761;49.490;10.908;2022-12-18T03:23:33;19.97;;;17.00;;
9445;SDS011;4761;49.490;10.908;2022-12-18T03:26:04;19.43;;;16.43;;
9445;SDS011;4761;49.490;10.908;2022-12-18T03:28:35;20.67;;;16.70;;
9445;SDS011;4761;49.490;10.908;2022-12-18T03:31:04;19.77;;;16.03;;
9445;SDS011;4761;49.490;10.908;2022-12-18T03:36:02;20.80;;;16.57;;
9445;SDS011;4761;49.490;10.908;2022-12-18T03:38:28;20.33;;;16.90;;
9445;SDS011;4761;49.490;10.908;2022-12-18T03:46:36;21.33;;;17.40;;
9445;SDS011;4761;49.490;10.908;2022-12-18T03:49:14;21.30;;;17.27;;
9445;SDS011;4761;49.490;10.908;2022-12-18T03:51:55;20.97;;;16.93;;
9445;SDS011;4761;49.490;10.908;2022-12-18T03:54:31;20.60;;;17.50;;
9445;SDS011;4761;49.490;10.908;2022-12-18T03:57:00;22.23;;;16.97;;
9445;SDS011;4761;49.490;10.908;2022-12-18T03:59:31;18.67;;;15.73;;
9445;SDS011;4761;49.490;10.908;2022-12-18T04:01:59;20.50;;;16.47;;
9445;SDS011;4761;49.490;10.908;2022-12-18T04:04:26;20.83;;;16.80;;
9445;SDS011;4761;49.490;10.908;2022-12-18T04:06:53;21.43;;;17.17;;
9445;SDS011;4761;49.490;10.908;2022-12-18T04:09:20;20.87;;;16.17;;
9445;SDS011;4761;49.490;10.908;2022-12-18T04:11:46;21.53;;;17.03;;
9445;SDS011;4761;49.490;10.908;2022-12-18T04:14:12;20.20;;;16.10;;
9445;SDS011;4761;49.490;10.908;2022-12-18T04:16:38;20.17;;;16.30;;
9445;SDS011;4761;49.490;10.908;2022-12-18T04:19:04;21.03;;;16.60;;
9445;SDS011;4761;49.490;10.908;2022-12-18T04:21:30;19.33;;;16.03;;
9445;SDS011;4761;49.490;10.908;2022-12-18T04:23:55;20.97;;;16.73;;
9445;SDS011;4761;49.490;10.908;2022-12-18T04:26:21;19.37;;;16.23;;
9445;SDS011;4761;49.490;10.908;2022-12-18T04:28:47;21.07;;;16.63;;
9445;SDS011;4761;49.490;10.908;2022-12-18T04:31:12;19.83;;;16.40;;
9445;SDS011;4761;49.490;10.908;2022-12-18T04:33:38;19.57;;;16.23;;
9445;SDS011;4761;49.490;10.908;2022-12-18T04:36:03;20.47;;;16.33;;
9445;SDS011;4761;49.490;10.908;2022-12-18T04:38:29;21.23;;;16.83;;
9445;SDS011;4761;49.490;10.908;2022-12-18T04:40:55;19.90;;;16.73;;
9445;SDS011;4761;49.490;10.908;2022-12-18T04:43:20;18.43;;;16.17;;
9445;SDS011;4761;49.490;10.908;2022-12-18T04:45:46;21.13;;;16.70;;
9445;SDS011;4761;49.490;10.908;2022-12-18T04:48:11;18.67;;;15.10;;
9445;SDS011;4761;49.490;10.908;2022-12-18T04:50:37;20.73;;;15.87;;
9445;SDS011;4761;49.490;10.908;2022-12-18T04:53:02;20.33;;;15.97;;
9445;SDS011;4761;49.490;10.908;2022-12-18T04:55:28;17.23;;;14.17;;
9445;SDS011;4761;49.490;10.908;2022-12-18T04:57:54;18.17;;;14.63;;
9445;SDS011;4761;49.490;10.908;2022-12-18T05:00:19;17.33;;;13.77;;
9445;SDS011;4761;49.490;10.908;2022-12-18T05:02:45;16.40;;;13.97;;
9445;SDS011;4761;49.490;10.908;2022-12-18T05:05:11;16.93;;;14.17;;
9445;SDS011;4761;49.490;10.908;2022-12-18T05:07:36;19.23;;;15.23;;
9445;SDS011;4761;49.490;10.908;2022-12-18T05:10:02;16.80;;;14.47;;
9445;SDS011;4761;49.490;10.908;2022-12-18T05:12:31;17.57;;;14.63;;
9445;SDS011;4761;49.490;10.908;2022-12-18T05:14:57;16.03;;;13.17;;
9445;SDS011;4761;49.490;10.908;2022-12-18T05:17:23;16.50;;;13.47;;
9445;SDS011;4761;49.490;10.908;2022-12-18T05:19:48;16.27;;;13.73;;
9445;SDS011;4761;49.490;10.908;2022-12-18T05:22:14;16.43;;;13.20;;
9445;SDS011;4761;49.490;10.908;2022-12-18T05:24:42;16.00;;;13.80;;
9445;SDS011;4761;49.490;10.908;2022-12-18T05:27:08;17.20;;;14.00;;
9445;SDS011;4761;49.490;10.908;2022-12-18T05:29:33;17.93;;;14.07;;
9445;SDS011;4761;49.490;10.908;2022-12-18T05:31:59;15.30;;;12.70;;
9445;SDS011;4761;49.490;10.908;2022-12-18T05:34:24;14.77;;;12.63;;
9445;SDS011;4761;49.490;10.908;2022-12-18T05:36:50;14.93;;;12.70;;
9445;SDS011;4761;49.490;10.908;2022-12-18T05:39:15;13.53;;;12.07;;
9445;SDS011;4761;49.490;10.908;2022-12-18T05:41:41;14.90;;;12.17;;
9445;SDS011;4761;49.490;10.908;2022-12-18T05:44:06;12.77;;;11.30;;
9445;SDS011;4761;49.490;10.908;2022-12-18T05:46:32;14.80;;;11.27;;
9445;SDS011;4761;49.490;10.908;2022-12-18T05:49:00;13.33;;;11.80;;
9445;SDS011;4761;49.490;10.908;2022-12-18T05:51:26;13.90;;;11.73;;
9445;SDS011;4761;49.490;10.908;2022-12-18T05:53:52;13.20;;;11.43;;
9445;SDS011;4761;49.490;10.908;2022-12-18T05:56:18;12.97;;;11.57;;
9445;SDS011;4761;49.490;10.908;2022-12-18T05:58:45;14.13;;;11.80;;
9445;SDS011;4761;49.490;10.908;2022-12-18T06:01:19;13.00;;;11.57;;
9445;SDS011;4761;49.490;10.908;2022-12-18T06:03:47;13.17;;;10.97;;
9445;SDS011;4761;49.490;10.908;2022-12-18T06:06:13;14.00;;;11.47;;
9445;SDS011;4761;49.490;10.908;2022-12-18T06:08:43;12.20;;;10.93;;
9445;SDS011;4761;49.490;10.908;2022-12-18T06:11:08;13.40;;;11.33;;
9445;SDS011;4761;49.490;10.908;2022-12-18T06:13:34;12.70;;;10.77;;
9445;SDS011;4761;49.490;10.908;2022-12-18T06:16:01;13.10;;;10.63;;
9445;SDS011;4761;49.490;10.908;2022-12-18T06:18:28;12.57;;;10.73;;
9445;SDS011;4761;49.490;10.908;2022-12-18T06:20:57;13.37;;;11.17;;
9445;SDS011;4761;49.490;10.908;2022-12-18T06:23:23;12.30;;;10.47;;
9445;SDS011;4761;49.490;10.908;2022-12-18T06:25:49;10.80;;;9.60;;
9445;SDS011;4761;49.490;10.908;2022-12-18T06:28:15;11.77;;;10.50;;
9445;SDS011;4761;49.490;10.908;2022-12-18T06:30:43;11.80;;;10.30;;
9445;SDS011;4761;49.490;10.908;2022-12-18T06:33:09;11.37;;;10.17;;
9445;SDS011;4761;49.490;10.908;2022-12-18T06:35:34;12.37;;;10.80;;
9445;SDS011;4761;49.490;10.908;2022-12-18T06:38:00;11.67;;;9.97;;
9445;SDS011;4761;49.490;10.908;2022-12-18T06:40:26;11.17;;;9.83;;
9445;SDS011;4761;49.490;10.908;2022-12-18T06:42:52;11.25;;;9.98;;
9445;SDS011;4761;49.490;10.908;2022-12-18T06:45:17;11.03;;;9.83;;
9445;SDS011;4761;49.490;10.908;2022-12-18T06:47:43;10.77;;;9.63;;
9445;SDS011;4761;49.490;10.908;2022-12-18T06:50:09;11.83;;;9.90;;
9445;SDS011;4761;49.490;10.908;2022-12-18T06:52:34;11.07;;;9.80;;
9445;SDS011;4761;49.490;10.908;2022-12-18T06:55:01;10.87;;;9.30;;
9445;SDS011;4761;49.490;10.908;2022-12-18T06:57:27;11.63;;;9.93;;
9445;SDS011;4761;49.490;10.908;2022-12-18T06:59:53;11.23;;;9.80;;
9445;SDS011;4761;49.490;10.908;2022-12-18T07:02:19;11.33;;;9.93;;
9445;SDS011;4761;49.490;10.908;2022-12-18T07:04:44;10.63;;;9.53;;
9445;SDS011;4761;49.490;10.908;2022-12-18T07:07:10;10.63;;;9.43;;
9445;SDS011;4761;49.490;10.908;2022-12-18T07:09:35;24.47;;;20.30;;
9445;SDS011;4761;49.490;10.908;2022-12-18T07:12:01;27.03;;;21.23;;
9445;SDS011;4761;49.490;10.908;2022-12-18T07:14:27;26.33;;;21.17;;
9445;SDS011;4761;49.490;10.908;2022-12-18T07:16:52;27.63;;;21.83;;
9445;SDS011;4761;49.490;10.908;2022-12-18T07:19:18;25.70;;;20.73;;
9445;SDS011;4761;49.490;10.908;2022-12-18T07:21:43;26.37;;;22.10;;
9445;SDS011;4761;49.490;10.908;2022-12-18T07:24:08;25.23;;;20.63;;
9445;SDS011;4761;49.490;10.908;2022-12-18T07:26:34;22.43;;;19.50;;
9445;SDS011;4761;49.490;10.908;2022-12-18T07:29:00;24.47;;;20.80;;
9445;SDS011;4761;49.490;10.908;2022-12-18T07:31:25;31.70;;;26.00;;
9445;SDS011;4761;49.490;10.908;2022-12-18T07:33:52;25.97;;;21.93;;
9445;SDS011;4761;49.490;10.908;2022-12-18T07:36:17;29.17;;;24.27;;
9445;SDS011;4761;49.490;10.908;2022-12-18T07:38:46;26.43;;;22.13;;
9445;SDS011;4761;49.490;10.908;2022-12-18T07:41:13;24.93;;;21.27;;
9445;SDS011;4761;49.490;10.908;2022-12-18T07:43:39;27.87;;;24.13;;
9445;SDS011;4761;49.490;10.908;2022-12-18T07:46:05;29.77;;;24.70;;
9445;SDS011;4761;49.490;10.908;2022-12-18T07:48:32;24.80;;;21.03;;
9445;SDS011;4761;49.490;10.908;2022-12-18T07:51:01;24.10;;;20.30;;
9445;SDS011;4761;49.490;10.908;2022-12-18T07:53:29;26.03;;;22.57;;
9445;SDS011;4761;49.490;10.908;2022-12-18T07:55:58;25.93;;;22.20;;
9445;SDS011;4761;49.490;10.908;2022-12-18T07:58:25;24.07;;;20.37;;
9445;SDS011;4761;49.490;10.908;2022-12-18T08:00:51;27.47;;;21.90;;
9445;SDS011;4761;49.490;10.908;2022-12-18T08:03:17;27.37;;;22.93;;
9445;SDS011;4761;49.490;10.908;2022-12-18T08:05:44;26.87;;;22.60;;
9445;SDS011;4761;49.490;10.908;2022-12-18T08:08:09;27.07;;;22.73;;
9445;SDS011;4761;49.490;10.908;2022-12-18T08:10:35;35.30;;;29.00;;
9445;SDS011;4761;49.490;10.908;2022-12-18T08:13:02;26.40;;;22.63;;
9445;SDS011;4761;49.490;10.908;2022-12-18T08:15:27;25.50;;;20.70;;
9445;SDS011;4761;49.490;10.908;2022-12-18T08:17:56;24.03;;;19.90;;
9445;SDS011;4761;49.490;10.908;2022-12-18T08:20:21;24.70;;;20.13;;
9445;SDS011;4761;49.490;10.908;2022-12-18T08:22:47;25.13;;;20.67;;
9445;SDS011;4761;49.490;10.908;2022-12-18T08:25:12;24.20;;;19.60;;
9445;SDS011;4761;49.490;10.908;2022-12-18T08:27:38;22.27;;;19.07;;
9445;SDS011;4761;49.490;10.908;2022-12-18T08:30:03;22.00;;;17.80;;
9445;SDS011;4761;49.490;10.908;2022-12-18T08:32:29;19.37;;;16.83;;
9445;SDS011;4761;49.490;10.908;2022-12-18T08:34:55;18.97;;;16.93;;
9445;SDS011;4761;49.490;10.908;2022-12-18T08:37:21;19.17;;;16.10;;
9445;SDS011;4761;49.490;10.908;2022-12-18T08:39:46;18.20;;;15.73;;
9445;SDS011;4761;49.490;10.908;2022-12-18T08:42:12;18.37;;;15.90;;
9445;SDS011;4761;49.490;10.908;2022-12-18T08:44:56;17.10;;;14.73;;
9445;SDS011;4761;49.490;10.908;2022-12-18T08:47:21;16.33;;;14.00;;
9445;SDS011;4761;49.490;10.908;2022-12-18T08:49:47;15.77;;;13.80;;
9445;SDS011;4761;49.490;10.908;2022-12-18T08:52:15;15.23;;;13.37;;
9445;SDS011;4761;49.490;10.908;2022-12-18T08:54:41;16.83;;;14.77;;
9445;SDS011;4761;49.490;10.908;2022-12-18T08:57:06;17.03;;;14.57;;
9445;SDS011;4761;49.490;10.908;2022-12-18T08:59:32;16.47;;;14.07;;
9445;SDS011;4761;49.490;10.908;2022-12-18T09:01:57;9.20;;;8.30;;
9445;SDS011;4761;49.490;10.908;2022-12-18T09:04:23;8.90;;;8.00;;
9445;SDS011;4761;49.490;10.908;2022-12-18T09:06:48;9.23;;;7.83;;
9445;SDS011;4761;49.490;10.908;2022-12-18T09:09:14;9.10;;;7.53;;
9445;SDS011;4761;49.490;10.908;2022-12-18T09:11:39;8.40;;;7.60;;
9445;SDS011;4761;49.490;10.908;2022-12-18T09:14:05;9.03;;;8.13;;
9445;SDS011;4761;49.490;10.908;2022-12-18T09:16:31;8.43;;;7.50;;
9445;SDS011;4761;49.490;10.908;2022-12-18T09:18:59;8.60;;;7.70;;
9445;SDS011;4761;49.490;10.908;2022-12-18T09:21:26;8.80;;;7.90;;
9445;SDS011;4761;49.490;10.908;2022-12-18T09:23:54;8.73;;;7.83;;
9445;SDS011;4761;49.490;10.908;2022-12-18T09:26:22;9.00;;;8.10;;
9445;SDS011;4761;49.490;10.908;2022-12-18T09:28:48;8.93;;;8.03;;
9445;SDS011;4761;49.490;10.908;2022-12-18T09:31:14;9.30;;;8.33;;
9445;SDS011;4761;49.490;10.908;2022-12-18T09:33:41;8.53;;;7.60;;
9445;SDS011;4761;49.490;10.908;2022-12-18T09:36:07;8.43;;;7.53;;
9445;SDS011;4761;49.490;10.908;2022-12-18T09:38:35;8.43;;;7.53;;
9445;SDS011;4761;49.490;10.908;2022-12-18T09:43:50;8.70;;;7.60;;
9445;SDS011;4761;49.490;10.908;2022-12-18T09:46:19;8.87;;;7.67;;
9445;SDS011;4761;49.490;10.908;2022-12-18T09:48:56;8.57;;;7.73;;
9445;SDS011;4761;49.490;10.908;2022-12-18T09:51:27;8.47;;;7.27;;
9445;SDS011;4761;49.490;10.908;2022-12-18T09:54:05;8.70;;;7.30;;
9445;SDS011;4761;49.490;10.908;2022-12-18T09:56:38;7.83;;;7.03;;
9445;SDS011;4761;49.490;10.908;2022-12-18T09:59:09;8.50;;;7.60;;
9445;SDS011;4761;49.490;10.908;2022-12-18T10:01:47;8.47;;;7.47;;
9445;SDS011;4761;49.490;10.908;2022-12-18T10:04:13;9.10;;;7.47;;
9445;SDS011;4761;49.490;10.908;2022-12-18T10:06:40;8.00;;;7.20;;
9445;SDS011;4761;49.490;10.908;2022-12-18T10:09:11;7.83;;;7.03;;
9445;SDS011;4761;49.490;10.908;2022-12-18T10:14:40;7.47;;;6.77;;
9445;SDS011;4761;49.490;10.908;2022-12-18T10:17:28;8.23;;;7.27;;
9445;SDS011;4761;49.490;10.908;2022-12-18T10:25:52;8.00;;;7.20;;
9445;SDS011;4761;49.490;10.908;2022-12-18T10:28:39;8.03;;;6.97;;
9445;SDS011;4761;49.490;10.908;2022-12-18T10:31:27;7.57;;;6.77;;
9445;SDS011;4761;49.490;10.908;2022-12-18T10:33:55;7.67;;;6.87;;
9445;SDS011;4761;49.490;10.908;2022-12-18T10:36:20;8.00;;;6.87;;
9445;SDS011;4761;49.490;10.908;2022-12-18T10:38:47;8.30;;;6.77;;
9445;SDS011;4761;49.490;10.908;2022-12-18T10:44:09;6.80;;;6.10;;
9445;SDS011;4761;49.490;10.908;2022-12-18T10:46:41;7.10;;;6.40;;
9445;SDS011;4761;49.490;10.908;2022-12-18T10:49:17;7.13;;;6.43;;
9445;SDS011;4761;49.490;10.908;2022-12-18T10:51:46;7.70;;;6.90;;
9445;SDS011;4761;49.490;10.908;2022-12-18T10:54:19;7.77;;;6.70;;
9445;SDS011;4761;49.490;10.908;2022-12-18T10:56:47;7.50;;;6.70;;
9445;SDS011;4761;49.490;10.908;2022-12-18T10:59:14;8.20;;;6.90;;
9445;SDS011;4761;49.490;10.908;2022-12-18T11:04:19;7.80;;;6.80;;
9445;SDS011;4761;49.490;10.908;2022-12-18T11:06:53;7.03;;;6.30;;
9445;SDS011;4761;49.490;10.908;2022-12-18T11:09:27;7.50;;;6.60;;
9445;SDS011;4761;49.490;10.908;2022-12-18T11:11:57;8.13;;;7.10;;
9445;SDS011;4761;49.490;10.908;2022-12-18T11:14:31;8.53;;;7.10;;
9445;SDS011;4761;49.490;10.908;2022-12-18T11:16:59;7.60;;;6.70;;
9445;SDS011;4761;49.490;10.908;2022-12-18T11:19:33;8.23;;;6.73;;
9445;SDS011;4761;49.490;10.908;2022-12-18T11:21:59;7.60;;;6.60;;
9445;SDS011;4761;49.490;10.908;2022-12-18T11:26:54;7.10;;;6.40;;
9445;SDS011;4761;49.490;10.908;2022-12-18T11:30:06;7.50;;;6.57;;
9445;SDS011;4761;49.490;10.908;2022-12-18T11:34:46;8.17;;;7.03;;
9445;SDS011;4761;49.490;10.908;2022-12-18T11:37:17;7.30;;;6.57;;
9445;SDS011;4761;49.490;10.908;2022-12-18T11:39:50;7.30;;;6.53;;
9445;SDS011;4761;49.490;10.908;2022-12-18T11:42:24;7.67;;;6.80;;
9445;SDS011;4761;49.490;10.908;2022-12-18T11:50:32;7.30;;;6.57;;
9445;SDS011;4761;49.490;10.908;2022-12-18T11:52:58;6.93;;;6.23;;
9445;SDS011;4761;49.490;10.908;2022-12-18T11:55:27;6.93;;;6.23;;
9445;SDS011;4761;49.490;10.908;2022-12-18T11:58:08;6.77;;;6.07;;
9445;SDS011;4761;49.490;10.908;2022-12-18T12:00:38;7.80;;;6.60;;
9445;SDS011;4761;49.490;10.908;2022-12-18T12:05:57;6.97;;;6.27;;
9445;SDS011;4761;49.490;10.908;2022-12-18T12:11:35;7.83;;;6.67;;
9445;SDS011;4761;49.490;10.908;2022-12-18T12:22:24;7.10;;;6.40;;
9445;SDS011;4761;49.490;10.908;2022-12-18T12:25:31;8.00;;;6.60;;
9445;SDS011;4761;49.490;10.908;2022-12-18T12:31:11;7.30;;;6.43;;
9445;SDS011;4761;49.490;10.908;2022-12-18T12:36:46;7.47;;;6.53;;
9445;SDS011;4761;49.490;10.908;2022-12-18T12:39:38;7.37;;;6.43;;
9445;SDS011;4761;49.490;10.908;2022-12-18T12:45:18;7.53;;;6.70;;
9445;SDS011;4761;49.490;10.908;2022-12-18T12:47:52;7.10;;;6.40;;
9445;SDS011;4761;49.490;10.908;2022-12-18T12:50:20;7.70;;;6.60;;
9445;SDS011;4761;49.490;10.908;2022-12-18T12:52:47;7.77;;;6.57;;
9445;SDS011;4761;49.490;10.908;2022-12-18T12:55:23;7.70;;;6.80;;
9445;SDS011;4761;49.490;10.908;2022-12-18T12:57:54;8.40;;;7.00;;
9445;SDS011;4761;49.490;10.908;2022-12-18T13:00:28;6.93;;;6.23;;
9445;SDS011;4761;49.490;10.908;2022-12-18T13:03:08;16.83;;;14.13;;
9445;SDS011;4761;49.490;10.908;2022-12-18T13:05:48;18.70;;;15.57;;
9445;SDS011;4761;49.490;10.908;2022-12-18T13:10:49;21.50;;;16.90;;
9445;SDS011;4761;49.490;10.908;2022-12-18T13:13:47;18.93;;;16.17;;
9445;SDS011;4761;49.490;10.908;2022-12-18T13:16:19;18.87;;;15.10;;
9445;SDS011;4761;49.490;10.908;2022-12-18T13:18:49;18.83;;;15.17;;
9445;SDS011;4761;49.490;10.908;2022-12-18T13:21:20;17.60;;;14.77;;
9445;SDS011;4761;49.490;10.908;2022-12-18T13:23:49;18.60;;;15.40;;
9445;SDS011;4761;49.490;10.908;2022-12-18T13:31:13;17.73;;;15.43;;
9445;SDS011;4761;49.490;10.908;2022-12-18T13:34:14;18.93;;;15.67;;
9445;SDS011;4761;49.490;10.908;2022-12-18T13:36:45;17.90;;;15.23;;
9445;SDS011;4761;49.490;10.908;2022-12-18T13:41:40;16.73;;;14.30;;
9445;SDS011;4761;49.490;10.908;2022-12-18T13:44:11;17.97;;;14.50;;
9445;SDS011;4761;49.490;10.908;2022-12-18T13:46:49;17.77;;;14.93;;
9445;SDS011;4761;49.490;10.908;2022-12-18T13:51:47;18.00;;;15.27;;
9445;SDS011;4761;49.490;10.908;2022-12-18T13:56:45;18.33;;;15.00;;
9445;SDS011;4761;49.490;10.908;2022-12-18T13:59:13;17.67;;;15.00;;
9445;SDS011;4761;49.490;10.908;2022-12-18T14:01:47;16.87;;;14.27;;
9445;SDS011;4761;49.490;10.908;2022-12-18T14:04:18;17.03;;;14.53;;
9445;SDS011;4761;49.490;10.908;2022-12-18T14:06:47;18.00;;;15.30;;
9445;SDS011;4761;49.490;10.908;2022-12-18T14:09:17;17.40;;;14.60;;
9445;SDS011;4761;49.490;10.908;2022-12-18T14:11:49;17.67;;;14.93;;
9445;SDS011;4761;49.490;10.908;2022-12-18T14:14:16;18.13;;;15.13;;
9445;SDS011;4761;49.490;10.908;2022-12-18T14:16:42;19.13;;;15.13;;
9445;SDS011;4761;49.490;10.908;2022-12-18T14:19:12;17.57;;;15.43;;
9445;SDS011;4761;49.490;10.908;2022-12-18T14:21:45;17.27;;;15.13;;
9445;SDS011;4761;49.490;10.908;2022-12-18T14:24:13;18.00;;;14.93;;
9445;SDS011;4761;49.490;10.908;2022-12-18T14:26:43;17.57;;;15.07;;
9445;SDS011;4761;49.490;10.908;2022-12-18T14:29:21;18.13;;;15.33;;
9445;SDS011;4761;49.490;10.908;2022-12-18T14:34:39;16.67;;;14.80;;
9445;SDS011;4761;49.490;10.908;2022-12-18T14:37:05;20.30;;;16.60;;
9445;SDS011;4761;49.490;10.908;2022-12-18T14:39:33;18.43;;;15.43;;
9445;SDS011;4761;49.490;10.908;2022-12-18T14:41:58;18.00;;;14.77;;
9445;SDS011;4761;49.490;10.908;2022-12-18T14:44:24;17.47;;;15.67;;
9445;SDS011;4761;49.490;10.908;2022-12-18T14:46:50;18.03;;;15.80;;
9445;SDS011;4761;49.490;10.908;2022-12-18T14:49:32;18.37;;;16.23;;
9445;SDS011;4761;49.490;10.908;2022-12-18T14:52:03;18.90;;;16.17;;
9445;SDS011;4761;49.490;10.908;2022-12-18T14:54:31;19.77;;;15.70;;
9445;SDS011;4761;49.490;10.908;2022-12-18T14:59:39;18.77;;;15.67;;
9445;SDS011;4761;49.490;10.908;2022-12-18T15:02:23;6.90;;;6.13;;
9445;SDS011;4761;49.490;10.908;2022-12-18T15:05:00;7.90;;;6.50;;
9445;SDS011;4761;49.490;10.908;2022-12-18T15:07:57;7.00;;;6.20;;
9445;SDS011;4761;49.490;10.908;2022-12-18T15:18:00;7.20;;;6.20;;
9445;SDS011;4761;49.490;10.908;2022-12-18T15:20:33;7.23;;;6.50;;
9445;SDS011;4761;49.490;10.908;2022-12-18T15:23:15;7.80;;;6.97;;
9445;SDS011;4761;49.490;10.908;2022-12-18T15:25:43;7.43;;;6.63;;
9445;SDS011;4761;49.490;10.908;2022-12-18T15:28:21;7.17;;;6.47;;
9445;SDS011;4761;49.490;10.908;2022-12-18T15:33:30;7.70;;;6.40;;
9445;SDS011;4761;49.490;10.908;2022-12-18T15:36:01;8.73;;;7.10;;
9445;SDS011;4761;49.490;10.908;2022-12-18T15:38:29;7.13;;;6.30;;
9445;SDS011;4761;49.490;10.908;2022-12-18T15:40:55;7.87;;;6.60;;
9445;SDS011;4761;49.490;10.908;2022-12-18T15:43:22;7.90;;;6.40;;
9445;SDS011;4761;49.490;10.908;2022-12-18T15:48:27;7.50;;;6.20;;
9445;SDS011;4761;49.490;10.908;2022-12-18T15:50:53;7.37;;;6.20;;
9445;SDS011;4761;49.490;10.908;2022-12-18T15:53:21;7.70;;;6.67;;
9445;SDS011;4761;49.490;10.908;2022-12-18T15:55:52;7.07;;;5.97;;
9445;SDS011;4761;49.490;10.908;2022-12-18T15:58:36;7.00;;;6.30;;
9445;SDS011;4761;49.490;10.908;2022-12-18T16:01:01;7.27;;;6.20;;
9445;SDS011;4761;49.490;10.908;2022-12-18T16:03:27;6.97;;;6.27;;
9445;SDS011;4761;49.490;10.908;2022-12-18T16:05:53;6.83;;;5.93;;
9445;SDS011;4761;49.490;10.908;2022-12-18T16:08:19;8.20;;;7.20;;
9445;SDS011;4761;49.490;10.908;2022-12-18T16:10:44;7.30;;;6.50;;
9445;SDS011;4761;49.490;10.908;2022-12-18T16:13:10;7.50;;;6.17;;
9445;SDS011;4761;49.490;10.908;2022-12-18T16:15:39;7.50;;;6.30;;
9445;SDS011;4761;49.490;10.908;2022-12-18T16:18:04;7.50;;;6.67;;
9445;SDS011;4761;49.490;10.908;2022-12-18T16:20:30;7.07;;;6.17;;
9445;SDS011;4761;49.490;10.908;2022-12-18T16:22:55;7.27;;;6.50;;
9445;SDS011;4761;49.490;10.908;2022-12-18T16:25:22;7.53;;;6.73;;
9445;SDS011;4761;49.490;10.908;2022-12-18T16:27:50;7.37;;;6.47;;
9445;SDS011;4761;49.490;10.908;2022-12-18T16:30:17;7.27;;;6.10;;
9445;SDS011;4761;49.490;10.908;2022-12-18T16:32:45;7.83;;;6.30;;
9445;SDS011;4761;49.490;10.908;2022-12-18T16:35:12;6.97;;;6.27;;
9445;SDS011;4761;49.490;10.908;2022-12-18T16:37:40;7.63;;;6.50;;
9445;SDS011;4761;49.490;10.908;2022-12-18T16:40:07;6.30;;;5.70;;
9445;SDS011;4761;49.490;10.908;2022-12-18T16:42:34;7.73;;;6.50;;